createdAt,value
2019-02-11T00:00:53.728Z,91.60
2019-02-11T00:03:22.889Z,91.60
2019-02-11T00:05:52.054Z,91.60
2019-02-11T00:08:20.999Z,91.50
2019-02-11T00:10:50.049Z,91.50
2019-02-11T00:13:19.177Z,91.50
2019-02-11T00:15:48.316Z,91.50
2019-02-11T00:18:17.345Z,91.50
2019-02-11T00:20:46.360Z,91.50
2019-02-11T00:23:15.485Z,91.50
2019-02-11T00:25:44.508Z,91.50
2019-02-11T00:28:13.495Z,91.60
2019-02-11T00:30:42.512Z,91.60
2019-02-11T00:33:11.580Z,91.60
2019-02-11T00:35:40.638Z,91.50
2019-02-11T00:38:09.649Z,91.50
2019-02-11T00:40:38.641Z,91.50
2019-02-11T00:43:07.639Z,91.60
2019-02-11T00:45:36.743Z,91.50
2019-02-11T00:48:07.115Z,91.60
2019-02-11T00:50:36.235Z,91.60
2019-02-11T00:53:05.224Z,91.60
2019-02-11T00:55:34.244Z,91.60
2019-02-11T00:58:03.307Z,91.60
2019-02-11T01:00:32.389Z,91.60
2019-02-11T01:03:01.450Z,91.70
2019-02-11T01:05:30.541Z,91.60
2019-02-11T01:07:59.557Z,91.60
2019-02-11T01:10:28.606Z,91.60
2019-02-11T01:12:57.581Z,91.70
2019-02-11T01:15:26.649Z,91.70
2019-02-11T01:17:55.648Z,91.70
2019-02-11T01:20:24.696Z,91.70
2019-02-11T01:22:53.713Z,91.60
2019-02-11T01:25:22.694Z,91.70
2019-02-11T01:27:51.710Z,91.60
2019-02-11T01:30:20.678Z,91.60
2019-02-11T01:32:49.745Z,91.60
2019-02-11T01:35:18.766Z,91.60
2019-02-11T01:37:47.766Z,91.60
2019-02-11T01:40:16.754Z,91.60
2019-02-11T01:42:45.733Z,91.60
2019-02-11T01:45:14.689Z,91.60
2019-02-11T01:47:43.654Z,91.60
2019-02-11T01:50:13.612Z,91.60
2019-02-11T01:52:42.615Z,91.90
2019-02-11T01:55:11.630Z,91.50
2019-02-11T01:57:40.563Z,91.50
2019-02-11T02:00:12.565Z,91.50
2019-02-11T02:02:41.752Z,91.60
2019-02-11T02:05:10.825Z,91.50
2019-02-11T02:07:39.970Z,91.50
2019-02-11T02:10:10.915Z,91.50
2019-02-11T02:12:39.930Z,91.50
2019-02-11T02:15:09.062Z,91.50
2019-02-11T02:17:37.999Z,91.40
2019-02-11T02:20:08.045Z,91.40
2019-02-11T02:22:37.065Z,91.40
2019-02-11T02:25:06.499Z,91.40
2019-02-11T02:27:35.459Z,91.40
2019-02-11T02:30:05.140Z,91.40
2019-02-11T02:32:34.184Z,91.40
2019-02-11T02:35:03.207Z,91.40
2019-02-11T02:37:32.189Z,91.40
2019-02-11T02:40:01.187Z,91.40
2019-02-11T02:42:30.183Z,91.40
2019-02-11T02:44:59.241Z,91.40
2019-02-11T02:47:28.269Z,91.60
2019-02-11T02:49:57.250Z,91.40
2019-02-11T02:52:26.279Z,91.40
2019-02-11T02:54:55.326Z,91.40
2019-02-11T02:57:24.720Z,91.40
2019-02-11T02:59:53.786Z,91.40
2019-02-11T03:02:22.776Z,91.40
2019-02-11T03:04:51.738Z,91.40
2019-02-11T03:07:20.767Z,91.40
2019-02-11T03:09:49.846Z,91.40
2019-02-11T03:12:18.859Z,91.40
2019-02-11T03:14:47.851Z,91.40
2019-02-11T03:17:16.946Z,91.30
2019-02-11T03:19:45.979Z,91.30
2019-02-11T03:22:14.999Z,91.30
2019-02-11T03:24:43.955Z,91.30
2019-02-11T03:27:12.974Z,91.30
2019-02-11T03:29:41.986Z,91.30
2019-02-11T03:32:10.973Z,91.30
2019-02-11T03:34:39.994Z,91.30
2019-02-11T03:37:09.016Z,91.30
2019-02-11T03:39:37.981Z,91.40
2019-02-11T03:42:06.999Z,91.40
2019-02-11T03:44:36.044Z,91.40
2019-02-11T03:47:05.049Z,91.40
2019-02-11T03:49:34.071Z,91.40
2019-02-11T03:52:03.013Z,91.40
2019-02-11T03:54:32.030Z,91.40
2019-02-11T03:57:01.120Z,91.40
2019-02-11T03:59:30.115Z,91.40
2019-02-11T04:01:59.113Z,91.40
2019-02-11T04:04:28.101Z,91.40
2019-02-11T04:06:57.078Z,91.40
2019-02-11T04:09:26.201Z,91.40
2019-02-11T04:11:55.247Z,91.30
2019-02-11T04:14:25.245Z,91.60
2019-02-11T04:16:54.296Z,91.30
2019-02-11T04:19:23.286Z,91.40
2019-02-11T04:22:08.204Z,91.40
2019-02-11T04:24:37.297Z,91.40
2019-02-11T04:27:06.333Z,91.40
2019-02-11T04:29:35.270Z,91.40
2019-02-11T04:32:04.327Z,91.80
2019-02-11T04:34:33.322Z,91.40
2019-02-11T04:37:02.357Z,91.40
2019-02-11T04:39:31.400Z,91.40
2019-02-11T04:42:19.627Z,91.40
2019-02-11T04:44:48.720Z,91.40
2019-02-11T04:47:17.741Z,91.40
2019-02-11T04:49:46.715Z,91.40
2019-02-11T04:52:17.183Z,91.40
2019-02-11T04:54:46.219Z,91.40
2019-02-11T04:57:15.220Z,91.40
2019-02-11T04:59:44.201Z,91.60
2019-02-11T05:02:13.271Z,91.40
2019-02-11T05:04:42.394Z,91.40
2019-02-11T05:07:11.526Z,91.40
2019-02-11T05:09:40.554Z,91.40
2019-02-11T05:12:09.565Z,91.40
2019-02-11T05:14:43.783Z,91.50
2019-02-11T05:17:09.441Z,91.50
2019-02-11T05:19:38.480Z,91.40
2019-02-11T05:22:07.517Z,91.40
2019-02-11T05:24:36.512Z,91.40
2019-02-11T05:27:05.549Z,91.40
2019-02-11T05:29:34.545Z,91.40
2019-02-11T05:32:03.577Z,91.40
2019-02-11T05:34:32.609Z,91.40
2019-02-11T05:37:01.593Z,91.40
2019-02-11T05:39:30.549Z,91.40
2019-02-11T05:41:59.571Z,91.40
2019-02-11T05:44:28.627Z,91.40
2019-02-11T05:46:57.625Z,91.30
2019-02-11T05:49:26.652Z,91.40
2019-02-11T05:51:55.678Z,91.30
2019-02-11T05:54:24.684Z,91.30
2019-02-11T05:56:53.714Z,91.30
2019-02-11T05:59:44.958Z,91.30
2019-02-11T06:02:15.590Z,91.20
2019-02-11T06:04:44.690Z,91.20
2019-02-11T06:07:13.737Z,91.20
2019-02-11T06:09:42.825Z,91.20
2019-02-11T06:12:11.908Z,91.30
2019-02-11T06:14:40.923Z,91.20
2019-02-11T06:17:09.988Z,91.20
2019-02-11T06:19:39.125Z,91.20
2019-02-11T06:22:08.423Z,91.20
2019-02-11T06:24:37.476Z,91.20
2019-02-11T06:27:06.529Z,91.20
2019-02-11T06:29:35.483Z,91.20
2019-02-11T06:32:04.490Z,91.20
2019-02-11T06:34:33.911Z,91.20
2019-02-11T06:37:03.034Z,91.20
2019-02-11T06:39:32.065Z,91.20
2019-02-11T06:42:01.070Z,91.20
2019-02-11T06:44:30.098Z,91.20
2019-02-11T06:46:59.047Z,91.20
2019-02-11T06:49:28.050Z,91.20
2019-02-11T06:51:57.044Z,91.20
2019-02-11T06:54:26.036Z,91.30
2019-02-11T06:56:55.049Z,91.30
2019-02-11T06:59:24.086Z,91.30
2019-02-11T07:01:53.138Z,91.30
2019-02-11T07:04:22.181Z,91.30
2019-02-11T07:06:51.289Z,91.30
2019-02-11T07:09:20.334Z,91.30
2019-02-11T07:11:49.368Z,91.30
2019-02-11T07:14:18.366Z,91.30
2019-02-11T07:16:47.369Z,91.30
2019-02-11T07:19:16.349Z,91.30
2019-02-11T07:21:45.409Z,91.30
2019-02-11T07:24:14.450Z,91.30
2019-02-11T07:26:43.454Z,91.30
2019-02-11T07:29:12.501Z,91.70
2019-02-11T07:31:41.557Z,91.30
2019-02-11T07:34:10.596Z,91.30
2019-02-11T07:36:39.678Z,91.30
2019-02-11T07:39:09.576Z,91.30
2019-02-11T07:42:00.450Z,91.30
2019-02-11T07:44:34.779Z,91.40
2019-02-11T07:47:04.526Z,91.30
2019-02-11T07:49:33.491Z,91.40
2019-02-11T07:52:03.688Z,91.40
2019-02-11T07:54:32.811Z,91.40
2019-02-11T07:57:01.847Z,91.40
2019-02-11T07:59:30.855Z,91.40
2019-02-11T08:01:59.961Z,91.40
2019-02-11T08:04:29.017Z,91.40
2019-02-11T08:06:58.022Z,91.40
2019-02-11T08:09:27.041Z,91.40
2019-02-11T08:11:56.125Z,91.40
2019-02-11T08:14:25.132Z,91.40
2019-02-11T08:16:54.245Z,91.40
2019-02-11T08:19:23.263Z,91.40
2019-02-11T08:21:52.287Z,91.40
2019-02-11T08:24:21.358Z,91.40
2019-02-11T08:26:50.380Z,91.50
2019-02-11T08:29:19.376Z,91.40
2019-02-11T08:31:48.479Z,91.40
2019-02-11T08:34:17.483Z,91.40
2019-02-11T08:36:46.498Z,91.30
2019-02-11T08:39:15.486Z,91.30
2019-02-11T08:41:45.629Z,91.20
2019-02-11T08:44:14.694Z,91.20
2019-02-11T08:46:43.703Z,91.10
2019-02-11T08:49:12.714Z,91.00
2019-02-11T08:51:41.775Z,91.00
2019-02-11T08:54:10.808Z,90.90
2019-02-11T08:56:39.811Z,90.90
2019-02-11T08:59:08.875Z,90.80
2019-02-11T09:01:37.883Z,90.80
2019-02-11T09:04:06.914Z,90.70
2019-02-11T09:06:35.985Z,90.70
2019-02-11T09:09:05.685Z,90.70
2019-02-11T09:11:34.761Z,90.70
2019-02-11T09:14:03.755Z,90.70
2019-02-11T09:16:32.747Z,90.60
2019-02-11T09:19:01.754Z,90.60
2019-02-11T09:21:30.729Z,90.60
2019-02-11T09:23:59.858Z,90.60
2019-02-11T09:26:28.869Z,90.50
2019-02-11T09:28:57.910Z,90.50
2019-02-11T09:31:26.950Z,90.50
2019-02-11T09:33:55.956Z,90.40
2019-02-11T09:36:24.994Z,90.30
2019-02-11T09:38:53.998Z,90.10
2019-02-11T09:41:23.048Z,90.00
2019-02-11T09:43:52.129Z,90.00
2019-02-11T09:46:21.433Z,90.00
2019-02-11T09:48:50.508Z,89.50
2019-02-11T09:51:19.946Z,89.20
2019-02-11T09:53:48.906Z,88.60
2019-02-11T09:56:17.883Z,88.30
2019-02-11T09:58:46.899Z,88.00
2019-02-11T10:01:16.025Z,87.80
2019-02-11T10:03:45.077Z,87.70
2019-02-11T10:06:14.107Z,87.50
2019-02-11T10:08:43.110Z,87.30
2019-02-11T10:11:12.110Z,87.30
2019-02-11T10:13:41.127Z,87.10
2019-02-11T10:16:12.626Z,87.00
2019-02-11T10:18:40.852Z,87.00
2019-02-11T10:21:09.865Z,87.00
2019-02-11T10:23:38.926Z,87.00
2019-02-11T10:26:08.056Z,87.00
2019-02-11T10:28:37.209Z,87.00
2019-02-11T10:31:06.196Z,87.00
2019-02-11T10:33:35.210Z,86.90
2019-02-11T10:36:04.228Z,86.70
2019-02-11T10:38:36.533Z,86.20
2019-02-11T10:41:04.122Z,85.70
2019-02-11T10:43:33.155Z,85.30
2019-02-11T10:46:02.130Z,85.00
2019-02-11T10:48:31.199Z,84.60
2019-02-11T10:51:00.307Z,84.20
2019-02-11T10:53:29.338Z,84.00
2019-02-11T10:55:58.331Z,83.60
2019-02-11T10:58:27.405Z,82.80
2019-02-11T11:00:56.535Z,82.20
2019-02-11T11:03:25.665Z,81.70
2019-02-11T11:05:54.640Z,81.30
2019-02-11T11:08:23.785Z,80.80
2019-02-11T11:10:52.804Z,80.60
2019-02-11T11:13:21.796Z,80.20
2019-02-11T11:15:50.917Z,80.00
2019-02-11T11:18:20.358Z,79.70
2019-02-11T11:20:49.409Z,79.10
2019-02-11T11:23:18.460Z,78.60
2019-02-11T11:25:47.746Z,78.00
2019-02-11T11:28:16.771Z,77.60
2019-02-11T11:30:45.755Z,77.10
2019-02-11T11:33:14.859Z,76.80
2019-02-11T11:35:43.966Z,76.30
2019-02-11T11:38:13.037Z,75.90
2019-02-11T11:40:42.099Z,75.20
2019-02-11T11:43:11.125Z,74.60
2019-02-11T11:45:40.303Z,73.90
2019-02-11T11:48:09.446Z,73.30
2019-02-11T11:50:38.523Z,72.60
2019-02-11T11:53:07.540Z,72.00
2019-02-11T11:55:36.690Z,71.30
2019-02-11T11:58:05.859Z,70.50
2019-02-11T12:00:35.299Z,69.70
2019-02-11T12:03:23.582Z,69.00
2019-02-11T12:05:52.682Z,68.30
2019-02-11T12:08:21.767Z,67.80
2019-02-11T12:10:50.859Z,67.20
2019-02-11T12:13:23.571Z,66.70
2019-02-11T12:15:52.287Z,66.30
2019-02-11T12:18:21.357Z,65.90
2019-02-11T12:20:50.476Z,65.30
2019-02-11T12:23:19.583Z,64.80
2019-02-11T12:25:48.733Z,64.20
2019-02-11T12:28:17.798Z,63.20
2019-02-11T12:30:46.779Z,62.70
2019-02-11T12:33:15.918Z,61.90
2019-02-11T12:35:45.027Z,61.10
2019-02-11T12:38:14.185Z,60.20
2019-02-11T12:40:43.167Z,59.40
2019-02-11T12:43:12.218Z,58.70
2019-02-11T12:45:41.358Z,58.40
2019-02-11T12:48:10.426Z,57.80
2019-02-11T12:50:39.550Z,57.20
2019-02-11T12:53:08.664Z,56.70
2019-02-11T12:55:37.820Z,56.20
2019-02-11T12:58:06.870Z,56.00
2019-02-11T13:00:35.957Z,55.50
2019-02-11T13:03:05.216Z,55.10
2019-02-11T13:05:45.174Z,54.60
2019-02-11T13:08:05.077Z,53.90
2019-02-11T13:10:34.135Z,53.50
2019-02-11T13:13:06.339Z,53.10
2019-02-11T13:15:57.430Z,52.60
2019-02-11T13:18:04.967Z,52.00
2019-02-11T13:20:34.149Z,51.60
2019-02-11T13:23:03.943Z,50.90
2019-02-11T13:25:33.014Z,50.40
2019-02-11T13:28:02.175Z,50.10
2019-02-11T13:30:31.321Z,49.90
2019-02-11T13:33:00.361Z,49.30
2019-02-11T13:35:29.370Z,48.20
2019-02-11T13:38:07.565Z,47.40
2019-02-11T13:40:36.574Z,46.90
2019-02-11T13:43:06.892Z,46.50
2019-02-11T13:45:36.036Z,46.10
2019-02-11T13:48:05.079Z,45.90
2019-02-11T13:50:34.150Z,45.90
2019-02-11T13:53:03.241Z,45.80
2019-02-11T13:55:32.394Z,46.10
2019-02-11T13:58:03.767Z,46.20
2019-02-11T14:00:33.529Z,46.10
2019-02-11T14:03:04.183Z,46.10
2019-02-11T14:05:33.690Z,45.90
2019-02-11T14:08:02.967Z,45.90
2019-02-11T14:10:32.115Z,44.80
2019-02-11T14:13:01.363Z,44.40
2019-02-11T14:15:30.407Z,44.20
2019-02-11T14:18:18.786Z,44.00
2019-02-11T14:20:50.014Z,43.60
2019-02-11T14:23:19.858Z,43.30
2019-02-11T14:25:48.931Z,42.90
2019-02-11T14:28:18.007Z,42.50
2019-02-11T14:30:47.085Z,42.00
2019-02-11T14:33:16.199Z,41.70
2019-02-11T14:35:45.225Z,41.50
2019-02-11T14:38:14.243Z,41.20
2019-02-11T14:40:43.354Z,40.80
2019-02-11T14:43:12.428Z,40.70
2019-02-11T14:45:41.510Z,40.50
2019-02-11T14:48:25.823Z,40.30
2019-02-11T14:50:41.260Z,40.00
2019-02-11T14:53:10.378Z,39.80
2019-02-11T14:55:39.446Z,39.60
2019-02-11T14:58:08.456Z,39.40
2019-02-11T15:00:37.506Z,39.60
2019-02-11T15:03:06.625Z,39.90
2019-02-11T15:05:35.774Z,40.30
2019-02-11T15:08:04.831Z,40.80
2019-02-11T15:10:33.854Z,41.10
2019-02-11T15:13:03.868Z,41.10
2019-02-11T15:15:32.915Z,41.70
2019-02-11T15:18:01.971Z,41.80
2019-02-11T15:20:31.005Z,42.20
2019-02-11T15:23:00.003Z,42.50
2019-02-11T15:25:28.994Z,42.90
2019-02-11T15:27:58.009Z,43.20
2019-02-11T15:30:27.067Z,43.40
2019-02-11T15:32:56.157Z,43.70
2019-02-11T15:35:25.190Z,44.00
2019-02-11T15:37:54.184Z,44.30
2019-02-11T15:40:23.383Z,44.50
2019-02-11T15:42:52.383Z,44.60
2019-02-11T15:45:21.466Z,44.80
2019-02-11T15:47:50.461Z,45.00
2019-02-11T15:50:38.699Z,45.30
2019-02-11T15:53:07.646Z,45.50
2019-02-11T15:55:36.690Z,45.90
2019-02-11T15:58:05.667Z,46.10
2019-02-11T16:00:34.679Z,46.40
2019-02-11T16:03:03.718Z,47.30
2019-02-11T16:05:32.722Z,46.70
2019-02-11T16:08:01.717Z,47.00
2019-02-11T16:10:30.745Z,47.20
2019-02-11T16:12:59.877Z,47.50
2019-02-11T16:15:28.949Z,47.80
2019-02-11T16:17:58.023Z,48.00
2019-02-11T16:20:27.151Z,48.30
2019-02-11T16:22:56.211Z,48.60
2019-02-11T16:25:25.287Z,48.80
2019-02-11T16:27:54.303Z,49.20
2019-02-11T16:30:23.273Z,49.50
2019-02-11T16:32:52.305Z,49.80
2019-02-11T16:35:21.330Z,50.00
2019-02-11T16:37:50.365Z,50.40
2019-02-11T16:40:21.767Z,50.70
2019-02-11T16:42:50.777Z,50.90
2019-02-11T16:45:19.790Z,51.20
2019-02-11T16:47:48.792Z,51.40
2019-02-11T16:50:17.822Z,51.80
2019-02-11T16:52:46.860Z,52.00
2019-02-11T16:55:15.821Z,52.20
2019-02-11T16:57:44.787Z,52.40
2019-02-11T17:00:15.433Z,52.70
2019-02-11T17:02:44.565Z,52.90
2019-02-11T17:05:13.814Z,53.30
2019-02-11T17:07:42.932Z,53.50
2019-02-11T17:10:12.386Z,53.80
2019-02-11T17:12:41.533Z,54.80
2019-02-11T17:15:12.417Z,54.30
2019-02-11T17:17:41.461Z,54.60
2019-02-11T17:20:11.222Z,54.90
2019-02-11T17:22:40.407Z,55.20
2019-02-11T17:25:09.814Z,55.40
2019-02-11T17:27:39.003Z,55.80
2019-02-11T17:30:13.863Z,55.90
2019-02-11T17:32:44.114Z,56.10
2019-02-11T17:35:13.247Z,56.40
2019-02-11T17:37:42.461Z,56.60
2019-02-11T17:40:12.286Z,56.80
2019-02-11T17:42:41.314Z,57.10
2019-02-11T17:45:13.280Z,57.40
2019-02-11T17:48:01.574Z,57.70
2019-02-11T17:50:30.636Z,57.90
2019-02-11T17:53:01.006Z,58.30
2019-02-11T17:55:29.989Z,58.50
2019-02-11T17:57:59.050Z,58.60
2019-02-11T18:00:34.420Z,58.80
2019-02-11T18:03:03.490Z,59.10
2019-02-11T18:05:51.738Z,59.30
2019-02-11T18:08:20.713Z,59.60
2019-02-11T18:10:49.700Z,59.60
2019-02-11T18:13:18.846Z,59.80
2019-02-11T18:15:48.180Z,60.10
2019-02-11T18:18:17.265Z,60.30
2019-02-11T18:20:46.313Z,60.50
2019-02-11T18:23:15.449Z,61.60
2019-02-11T18:25:44.481Z,61.00
2019-02-11T18:28:13.483Z,61.10
2019-02-11T18:30:42.519Z,61.30
2019-02-11T18:33:11.588Z,61.50
2019-02-11T18:35:40.652Z,61.70
2019-02-11T18:38:09.687Z,62.40
2019-02-11T18:40:38.686Z,62.10
2019-02-11T18:43:26.907Z,62.40
2019-02-11T18:45:56.033Z,62.50
2019-02-11T18:48:25.055Z,62.70
2019-02-11T18:50:54.053Z,62.90
2019-02-11T18:53:24.398Z,63.10
2019-02-11T18:55:53.471Z,63.30
2019-02-11T18:58:22.482Z,63.40
2019-02-11T19:00:51.502Z,63.70
2019-02-11T19:03:20.512Z,63.80
2019-02-11T19:05:49.644Z,64.00
2019-02-11T19:08:18.800Z,64.20
2019-02-11T19:10:47.925Z,64.30
2019-02-11T19:13:17.063Z,64.60
2019-02-11T19:15:46.124Z,64.60
2019-02-11T19:18:15.490Z,64.80
2019-02-11T19:20:44.493Z,65.00
2019-02-11T19:23:13.517Z,65.10
2019-02-11T19:25:42.585Z,65.20
2019-02-11T19:28:11.737Z,65.50
2019-02-11T19:30:40.791Z,65.70
2019-02-11T19:33:09.728Z,65.90
2019-02-11T19:35:38.775Z,66.00
2019-02-11T19:38:07.775Z,66.20
2019-02-11T19:40:36.901Z,66.30
2019-02-11T19:43:05.991Z,66.40
2019-02-11T19:45:35.115Z,66.60
2019-02-11T19:48:04.209Z,66.80
2019-02-11T19:50:33.334Z,67.10
2019-02-11T19:53:02.421Z,67.20
2019-02-11T19:55:31.474Z,67.40
2019-02-11T19:58:00.597Z,67.60
2019-02-11T20:00:29.660Z,67.70
2019-02-11T20:02:58.865Z,68.00
2019-02-11T20:05:27.910Z,68.10
2019-02-11T20:07:56.983Z,68.30
2019-02-11T20:10:26.020Z,68.40
2019-02-11T20:12:55.136Z,68.70
2019-02-11T20:15:24.430Z,68.80
2019-02-11T20:17:53.482Z,68.90
2019-02-11T20:20:22.886Z,69.10
2019-02-11T20:22:52.033Z,69.20
2019-02-11T20:25:21.225Z,69.40
2019-02-11T20:27:50.361Z,69.50
2019-02-11T20:30:21.904Z,69.60
2019-02-11T20:32:51.014Z,69.80
2019-02-11T20:35:39.242Z,69.90
2019-02-11T20:38:08.317Z,70.00
2019-02-11T20:40:37.399Z,70.10
2019-02-11T20:43:06.487Z,70.20
2019-02-11T20:45:35.496Z,70.40
2019-02-11T20:48:04.522Z,70.60
2019-02-11T20:50:33.678Z,70.70
2019-02-11T20:53:02.733Z,70.80
2019-02-11T20:55:31.732Z,71.00
2019-02-11T20:58:00.840Z,71.00
2019-02-11T21:00:30.004Z,71.20
2019-02-11T21:03:07.747Z,71.40
2019-02-11T21:05:29.836Z,71.40
2019-02-11T21:07:58.926Z,71.60
2019-02-11T21:10:27.934Z,71.70
2019-02-11T21:12:57.053Z,71.70
2019-02-11T21:15:26.119Z,71.90
2019-02-11T21:17:55.171Z,72.00
2019-02-11T21:20:33.507Z,72.10
2019-02-11T21:23:04.514Z,72.10
2019-02-11T21:25:33.580Z,72.20
2019-02-11T21:28:03.038Z,72.40
2019-02-11T21:30:32.227Z,72.30
2019-02-11T21:33:02.839Z,72.50
2019-02-11T21:35:31.972Z,72.50
2019-02-11T21:38:01.174Z,72.60
2019-02-11T21:40:30.105Z,72.80
2019-02-11T21:42:59.093Z,72.90
2019-02-11T21:45:28.062Z,73.00
2019-02-11T21:47:57.058Z,73.10
2019-02-11T21:50:27.037Z,73.30
2019-02-11T21:52:56.224Z,73.50
2019-02-11T21:55:25.247Z,73.50
2019-02-11T21:57:54.281Z,73.70
2019-02-11T22:00:23.264Z,73.80
2019-02-11T22:02:52.388Z,73.90
2019-02-11T22:05:21.521Z,73.90
2019-02-11T22:07:50.543Z,74.10
2019-02-11T22:10:19.574Z,74.10
2019-02-11T22:12:48.594Z,74.20
2019-02-11T22:15:19.001Z,74.30
2019-02-11T22:17:48.128Z,74.30
2019-02-11T22:20:17.945Z,74.30
2019-02-11T22:22:46.963Z,74.40
2019-02-11T22:25:16.001Z,74.50
2019-02-11T22:27:45.069Z,74.70
2019-02-11T22:30:16.014Z,74.60
2019-02-11T22:32:45.056Z,74.70
2019-02-11T22:35:14.031Z,74.80
2019-02-11T22:37:43.056Z,74.90
2019-02-11T22:40:12.521Z,75.00
2019-02-11T22:43:00.750Z,75.20
2019-02-11T22:45:29.897Z,75.30
2019-02-11T22:47:58.946Z,75.30
2019-02-11T22:50:27.895Z,75.40
2019-02-11T22:52:56.904Z,75.60
2019-02-11T22:55:25.895Z,75.70
2019-02-11T22:57:54.944Z,75.70
2019-02-11T23:01:06.644Z,75.70
2019-02-11T23:03:36.349Z,75.90
2019-02-11T23:06:05.821Z,75.90
2019-02-11T23:08:34.874Z,76.10
2019-02-11T23:11:03.876Z,76.20
2019-02-11T23:13:32.874Z,76.30
2019-02-11T23:16:01.923Z,76.50
2019-02-11T23:18:31.074Z,76.60
2019-02-11T23:21:00.153Z,76.70
2019-02-11T23:23:29.173Z,76.70
2019-02-11T23:25:58.204Z,76.80
2019-02-11T23:28:27.329Z,76.90
2019-02-11T23:30:56.414Z,76.90
2019-02-11T23:33:25.427Z,77.00
2019-02-11T23:35:54.434Z,77.00
2019-02-11T23:38:23.508Z,77.00
2019-02-11T23:40:52.506Z,77.10
2019-02-11T23:43:21.651Z,77.20
2019-02-11T23:45:50.691Z,77.20
2019-02-11T23:48:19.777Z,77.30
2019-02-11T23:50:48.923Z,77.30
2019-02-11T23:53:18.001Z,77.50
2019-02-11T23:55:47.078Z,77.40
2019-02-11T23:58:16.181Z,77.40
